• Join FlightAware (Why Join?)
  • Login
  • US Flag 
01:39PM EDT


 

Airport Tracker/Info


-or-


 

Live Flight TrackerFlight Track Log ✈ USC110 ✈ 24-Jul-2013 ✈ KLCK - KCLT

Flight Track Log - Related Links

Times and Time Zones

All times are in EDT time to prevent confusion due to time zone crossing. See the USC110 flight status page for this flight to view local times or setup timezone preferences in your user account.

Time Position Orientation Groundspeed Altitude Reporting Facility
EDT Latitude Longitude Course Direction KTS MPH feet Rate Location/Type
05:07AM 39.8156 -82.9292 60° Northeast 57 66 1,000  Level Indianapolis Center
05:08AM 39.8233 -82.9114 60° Northeast 79 91 1,600 840 Climbing Indianapolis Center
05:09AM 39.8350 -82.8853 60° Northeast 84 97 2,500 1,020 Climbing Indianapolis Center
05:10AM 39.8075 -82.8789 170° South 127 146 3,700 1,020 Climbing Indianapolis Center
05:11AM 39.7750 -82.8683 166° South 122 140 4,600 960 Climbing Indianapolis Center
05:12AM 39.7425 -82.8578 166° South 120 138 5,700 960 Climbing Indianapolis Center
05:13AM 39.7122 -82.8464 164° South 119 137 6,600 900 Climbing Indianapolis Center
05:14AM 39.6794 -82.8339 164° South 121 139 7,600 900 Climbing Indianapolis Center
05:15AM 39.6433 -82.8228 167° South 128 147 8,500 660 Climbing Indianapolis Center
05:16AM 39.6072 -82.8117 167° South 132 152 9,000 240 Climbing Indianapolis Center
05:17AM 39.5600 -82.7967 166° South 165 190 9,100  Climbing Indianapolis Center
05:18AM 39.5111 -82.7811 166° South 176 203 9,000 -60 Descending Indianapolis Center
05:19AM 39.4622 -82.7661 167° South 177 204 9,000  Level Indianapolis Center
05:20AM 39.4139 -82.7494 165° South 177 204 9,000  Level Indianapolis Center
05:21AM 39.3647 -82.7347 167° South 179 206 9,000  Level Indianapolis Center
05:22AM 39.3164 -82.7181 165° South 179 206 9,000  Level Indianapolis Center
05:23AM 39.2678 -82.7022 166° South 178 205 9,000  Level Indianapolis Center
05:24AM 39.2178 -82.6869 167° South 181 208 9,000  Level Indianapolis Center
05:25AM 39.1708 -82.6714 166° South 178 205 9,000  Level Indianapolis Center
05:26AM 39.1233 -82.6558 166° South 176 203 9,000  Level Indianapolis Center
05:27AM 39.0758 -82.6422 167° South 174 200 9,000  Level Indianapolis Center
05:28AM 39.0289 -82.6258 165° South 174 200 9,000  Level Indianapolis Center
05:29AM 38.9817 -82.6106 166° South 174 200 9,000  Level Indianapolis Center
05:30AM 38.9342 -82.5950 166° South 176 203 9,000  Level Indianapolis Center
05:31AM 38.8861 -82.5800 166° South 177 204 9,000  Level Indianapolis Center
05:32AM 38.8378 -82.5653 167° South 178 205 9,000  Level Indianapolis Center
05:33AM 38.7897 -82.5494 166° South 178 205 9,000  Level Indianapolis Center
05:34AM 38.7422 -82.5350 167° South 176 203 9,000  Level Indianapolis Center
05:35AM 38.6936 -82.5200 166° South 179 206 9,000  Level Indianapolis Center
05:36AM 38.6369 -82.5008 165° South 180 207 9,000  Level Indianapolis Center
05:37AM 38.5889 -82.4867 167° South 178 205 9,000  Level Indianapolis Center
05:38AM 38.5492 -82.4736 166° South 179 206 9,000  Level Indianapolis Center
05:39AM 38.4906 -82.4547 166° South 183 211 9,000  Level Indianapolis Center
05:40AM 38.4428 -82.4400 166° South 180 207 9,000  Level Indianapolis Center
05:41AM 38.3942 -82.4258 167° South 179 206 9,000  Level Indianapolis Center
05:42AM 38.3458 -82.4117 167° South 179 206 9,000  Level Indianapolis Center
05:43AM 38.2983 -82.3964 166° South 177 204 9,000  Level Indianapolis Center
05:44AM 38.2511 -82.3808 165° South 176 203 9,000  Level Indianapolis Center
05:45AM 38.2039 -82.3658 166° South 175 201 9,000  Level Indianapolis Center
05:46AM 38.1561 -82.3514 167° South 175 201 9,000  Level Indianapolis Center
05:47AM 38.1094 -82.3369 166° South 173 199 9,000  Level Indianapolis Center
05:48AM 38.0619 -82.3222 166° South 175 201 9,000  Level Indianapolis Center
05:49AM 38.0156 -82.3069 165° South 173 199 9,000  Level Indianapolis Center
05:50AM 37.9692 -82.2944 168° South 169 194 9,000  Level Indianapolis Center
05:51AM 37.9225 -82.2789 165° South 173 199 9,000  Level Indianapolis Center
05:52AM 37.8758 -82.2647 167° South 172 198 9,000  Level Indianapolis Center
05:53AM 37.8272 -82.2586 174° South 175 201 9,000  Level Indianapolis Center
05:54AM 37.7811 -82.2517 173° South 168 193 9,000  Level Indianapolis Center
05:55AM 37.7350 -82.2339 163° South 170 196 9,000  Level Indianapolis Center
05:56AM 37.6881 -82.2189 166° South 173 199 9,000  Level Indianapolis Center
05:57AM 37.6403 -82.2031 165° South 175 201 9,000  Level Indianapolis Center
05:58AM 37.5933 -82.1867 165° South 175 201 9,000  Level Indianapolis Center
05:59AM 37.5458 -82.1758 170° South 174 200 9,000  Level Indianapolis Center
06:00AM 37.4986 -82.1644 169° South 173 199 9,100  Climbing Indianapolis Center
06:01AM 37.4519 -82.1519 168° South 171 197 9,100  Level Indianapolis Center
06:02AM 37.4047 -82.1317 161° South 178 205 9,200  Climbing Indianapolis Center
06:03AM 37.3564 -82.1200 169° South 177 204 9,100 -60 Descending Indianapolis Center
06:04AM 37.3006 -82.1136 175° South 173 199 9,100  Level Indianapolis Center
06:05AM 37.2533 -82.1128 179° South 171 197 9,100  Level Indianapolis Center
06:06AM 37.2050 -82.1072 175° South 173 199 9,100  Level Indianapolis Center
06:07AM 37.1567 -82.1019 175° South 174 200 9,100 -60 Level Indianapolis Center
06:08AM 37.1144 -82.0886 166° South 153 176 9,000  Descending Indianapolis Center
06:09AM 37.0725 -82.0564 148° Southeast 173 199 9,100  Climbing Indianapolis Center
06:10AM 37.0281 -82.0325 157° South 173 199 9,100  Level Indianapolis Center
06:11AM 36.9853 -82.0047 153° Southeast 172 198 9,100  Level Indianapolis Center
06:12AM 36.9414 -81.9772 153° Southeast 175 201 9,100  Level Indianapolis Center
06:13AM 36.8967 -81.9500 154° Southeast 176 203 9,100  Level Indianapolis Center
06:14AM 36.8575 -81.9297 157° South 193 222 9,100 -60 Level Atlanta Center
06:15AM 36.8133 -81.9022 154° Southeast 193 222 9,000  Descending Atlanta Center
06:16AM 36.7669 -81.8750 155° Southeast 187 215 9,100  Climbing Atlanta Center
06:17AM 36.7228 -81.8503 156° South 182 209 9,100  Level Atlanta Center
06:18AM 36.6764 -81.8206 153° Southeast 176 203 9,100  Level Atlanta Center
06:19AM 36.6342 -81.7933 153° Southeast 176 203 9,100  Level Atlanta Center
06:20AM 36.5900 -81.7661 154° Southeast 176 203 9,100 -60 Level Atlanta Center
06:21AM 36.5436 -81.7389 155° Southeast 181 208 9,000  Descending Atlanta Center
06:22AM 36.4992 -81.7092 152° Southeast 181 208 9,100  Climbing Atlanta Center
06:23AM 36.4528 -81.6797 153° Southeast 181 208 9,100 -60 Level Atlanta Center
06:24AM 36.4083 -81.6550 156° South 181 208 9,000 -60 Descending Atlanta Center
06:25AM 36.3664 -81.6306 155° Southeast 181 208 9,000  Level Atlanta Center
06:26AM 36.3239 -81.6036 153° Southeast 181 208 9,100  Climbing Atlanta Center
06:27AM 36.2756 -81.5767 156° South 181 208 9,100  Level Atlanta Center
06:28AM 36.2333 -81.5522 155° Southeast 176 203 9,100  Level Atlanta Center
06:29AM 36.1931 -81.5175 145° Southeast 181 208 9,100  Level Atlanta Center
06:30AM 36.1525 -81.4828 145° Southeast 181 208 9,100  Level Atlanta Center
06:31AM 36.1081 -81.4456 146° Southeast 181 208 9,100  Level Atlanta Center
06:32AM 36.0678 -81.4108 145° Southeast 181 208 9,100  Level Atlanta Center
06:33AM 36.0272 -81.3761 145° Southeast 174 200 9,100  Level Atlanta Center
06:34AM 35.9869 -81.3417 145° Southeast 174 200 9,100 -60 Level Atlanta Center
06:35AM 35.9464 -81.3044 143° Southeast 174 200 9,000 -60 Descending Atlanta Center
06:36AM 35.9061 -81.2725 147° Southeast 174 200 9,000  Level Atlanta Center
06:37AM 35.8656 -81.2381 145° Southeast 174 200 9,000 -300 Level Atlanta Center
06:38AM 35.8172 -81.2192 162° South 174 200 8,500 -600 Descending Atlanta Center
06:39AM 35.7644 -81.1903 156° South 190 219 7,900 -600 Descending Atlanta Center
06:40AM 35.7242 -81.1586 147° Southeast 195 224 7,400 -660 Descending Atlanta Center
06:41AM 35.6836 -81.1189 141° Southeast 195 224 6,600 -660 Descending Atlanta Center
06:42AM 35.6367 -81.0797 146° Southeast 195 224 6,100 -300 Descending Atlanta Center
06:43AM 35.5900 -81.0433 148° Southeast 190 219 6,000  Descending Atlanta Center
06:44AM 35.5536 -81.0089 142° Southeast 180 207 6,100 -120 Climbing Atlanta Center
06:45AM 35.5133 -80.9797 149° Southeast 174 200 5,800 -420 Descending Atlanta Center
06:46AM 35.4631 -80.9739 175° South 174 200 5,300 -720 Descending Atlanta Center
06:47AM 35.4108 -80.9733 180° South 180 207 4,400 -1,020 Descending Atlanta Center
06:48AM 35.3836 -80.9717 177° South 191 220 3,800 -1,080 Descending Atlanta Center
06:49AM 35.3333 -80.9658 175° South 194 223 2,900 -960 Descending Atlanta Center
06:50AM 35.2811 -80.9628 177° South 187 215 2,000 -960 Descending Atlanta Center
06:51AM 35.2331 -80.9594 177° South 174 200 1,000 -1,020 Descending Atlanta Center
06:53AM 35.2137 -80.9491 158° South  Level Estimated